Time;durP1;ratioP1;P1;durP2;ratioP2;P2;SDS_P1;SDS_P2;PMS_P1;PMS_P2;Temp;Humidity;BMP_temperature;BMP_pressure;BME280_temperature;BME280_humidity;BME280_pressure;Samples;Min_cycle;Max_cycle;Signal;HPM_P1;HPM_P2
2023/10/04 00:02:05;;;;;;;33.05;26.13;;;17.00;99.90;;;;;;5064366;28;20041;-59
2023/10/04 00:04:34;;;;;;;32.88;25.85;;;16.90;99.90;;;;;;5063566;28;20040;-59
2023/10/04 00:07:06;;;;;;;30.63;24.58;;;17.00;99.90;;;;;;5054407;28;20028;-60
2023/10/04 00:09:33;;;;;;;29.13;22.48;;;17.00;99.90;;;;;;5068143;28;20032;-60
2023/10/04 00:12:02;;;;;;;25.40;20.83;;;17.10;99.90;;;;;;5034151;28;20118;-60
2023/10/04 00:14:27;;;;;;;24.48;18.95;;;17.20;99.90;;;;;;5061457;28;20129;-59
2023/10/04 00:16:57;;;;;;;30.42;21.05;;;17.20;99.90;;;;;;5034682;28;20123;-60
2023/10/04 00:19:23;;;;;;;25.38;20.00;;;17.30;99.90;;;;;;5034854;28;20128;-60
2023/10/04 00:21:48;;;;;;;24.58;19.27;;;17.30;99.90;;;;;;5027787;28;20115;-59
2023/10/04 00:24:14;;;;;;;22.45;17.55;;;17.30;99.90;;;;;;5033020;28;20032;-59
2023/10/04 00:26:42;;;;;;;24.65;18.08;;;17.30;99.90;;;;;;5028252;28;20048;-61
2023/10/04 00:29:08;;;;;;;26.45;18.58;;;17.40;99.90;;;;;;5027856;28;20048;-60
2023/10/04 00:31:36;;;;;;;21.98;17.52;;;17.40;99.90;;;;;;5048332;28;20040;-59
2023/10/04 00:34:03;;;;;;;31.13;25.52;;;17.30;99.90;;;;;;5047919;28;20029;-59
2023/10/04 00:36:29;;;;;;;64.88;50.97;;;17.40;99.90;;;;;;5029086;28;20076;-59
2023/10/04 00:38:55;;;;;;;63.05;54.97;;;17.40;99.90;;;;;;5047875;28;20060;-59
2023/10/04 00:41:21;;;;;;;30.02;24.77;;;17.30;99.90;;;;;;5044503;28;20434;-59
2023/10/04 00:43:49;;;;;;;30.13;23.00;;;17.30;99.90;;;;;;5048528;28;20051;-59
2023/10/04 00:46:21;;;;;;;30.17;23.73;;;17.30;99.90;;;;;;5043901;28;20080;-59
2023/10/04 00:48:49;;;;;;;26.03;21.23;;;17.30;99.90;;;;;;5027042;28;20037;-59
2023/10/04 00:51:16;;;;;;;25.77;19.60;;;17.30;99.90;;;;;;5044700;28;20348;-59
2023/10/04 00:53:44;;;;;;;23.92;18.48;;;17.20;99.90;;;;;;5044434;28;20029;-60
2023/10/04 00:56:10;;;;;;;33.40;25.98;;;17.20;99.90;;;;;;5049087;28;20407;-59
2023/10/04 00:58:37;;;;;;;36.85;30.17;;;17.20;99.90;;;;;;5035323;28;20047;-59
2023/10/04 01:01:06;;;;;;;29.08;20.08;;;17.20;99.90;;;;;;5001077;28;20033;-59
2023/10/04 01:03:36;;;;;;;21.88;15.50;;;17.20;99.90;;;;;;5053764;28;20476;-59
2023/10/04 01:06:04;;;;;;;21.38;18.42;;;17.20;99.90;;;;;;5047593;28;20120;-59
2023/10/04 01:08:30;;;;;;;22.77;18.27;;;17.00;99.90;;;;;;5039104;28;20033;-59
2023/10/04 01:10:56;;;;;;;25.50;19.02;;;17.00;99.90;;;;;;5046250;28;20460;-59
2023/10/04 01:13:22;;;;;;;24.02;18.38;;;17.00;99.90;;;;;;5032569;28;20037;-59
2023/10/04 01:15:55;;;;;;;25.17;18.92;;;17.00;99.90;;;;;;5052116;28;20079;-59
2023/10/04 01:18:22;;;;;;;25.25;18.38;;;17.00;99.90;;;;;;5051992;28;20033;-59
2023/10/04 01:20:49;;;;;;;25.70;19.23;;;17.00;99.90;;;;;;5045933;28;20048;-59
2023/10/04 01:23:15;;;;;;;23.63;17.58;;;16.90;99.90;;;;;;5053347;28;20452;-59
2023/10/04 01:25:44;;;;;;;19.85;15.13;;;16.90;99.90;;;;;;5048476;28;20037;-59
2023/10/04 01:28:13;;;;;;;20.63;13.35;;;16.90;99.90;;;;;;5052304;28;20128;-60
2023/10/04 01:30:43;;;;;;;18.83;12.80;;;16.90;99.90;;;;;;5070398;28;20036;-60
2023/10/04 01:33:16;;;;;;;19.67;12.60;;;16.90;99.90;;;;;;5069280;28;20452;-59
2023/10/04 01:35:42;;;;;;;18.30;12.82;;;16.90;99.90;;;;;;5065564;28;20078;-60
2023/10/04 01:38:08;;;;;;;14.95;11.02;;;16.90;99.90;;;;;;5071694;28;20036;-60
2023/10/04 01:40:38;;;;;;;17.13;10.32;;;16.90;99.90;;;;;;5066581;28;20036;-59
2023/10/04 01:43:25;;;;;;;14.68;9.05;;;16.90;99.90;;;;;;5068578;28;20040;-59
2023/10/04 01:45:53;;;;;;;13.88;8.93;;;16.80;99.90;;;;;;5065500;28;20045;-60
2023/10/04 01:48:19;;;;;;;14.32;8.68;;;16.80;99.90;;;;;;5069108;28;20074;-60
2023/10/04 01:50:48;;;;;;;12.10;7.47;;;16.80;99.90;;;;;;5071334;28;20051;-59
2023/10/04 01:53:15;;;;;;;14.00;7.80;;;16.80;99.90;;;;;;5066699;28;20044;-60
2023/10/04 01:55:41;;;;;;;13.13;6.90;;;16.70;99.90;;;;;;5070581;28;20035;-60
2023/10/04 01:58:08;;;;;;;13.15;7.57;;;16.80;99.90;;;;;;5072052;28;20372;-61
2023/10/04 02:00:35;;;;;;;9.55;6.45;;;16.80;99.90;;;;;;5066513;28;20063;-60
2023/10/04 02:03:01;;;;;;;12.15;7.00;;;16.80;99.90;;;;;;5065761;28;20089;-60
2023/10/04 02:05:37;;;;;;;9.60;6.50;;;16.90;99.90;;;;;;5036708;28;20068;-59
2023/10/04 02:08:12;;;;;;;13.70;7.53;;;16.80;99.90;;;;;;5068439;28;20157;-60
2023/10/04 02:10:38;;;;;;;10.13;6.68;;;16.80;99.90;;;;;;5064769;28;20037;-60
2023/10/04 02:13:11;;;;;;;12.43;7.70;;;16.80;99.90;;;;;;5070015;28;20028;-59
2023/10/04 02:15:39;;;;;;;12.43;8.20;;;16.80;99.90;;;;;;5069513;28;20060;-60
2023/10/04 02:18:05;;;;;;;14.52;9.18;;;16.80;99.90;;;;;;5068141;28;20025;-60
2023/10/04 02:20:35;;;;;;;15.45;8.73;;;16.80;99.90;;;;;;5064406;28;20495;-60
2023/10/04 02:23:03;;;;;;;15.88;9.38;;;16.90;99.90;;;;;;5064001;28;20036;-60
2023/10/04 02:25:29;;;;;;;13.07;9.25;;;16.90;99.90;;;;;;5068542;28;20491;-59
2023/10/04 02:28:01;;;;;;;21.05;9.85;;;16.80;99.90;;;;;;5067888;28;20029;-59
2023/10/04 02:30:26;;;;;;;16.50;9.15;;;16.80;99.90;;;;;;5052068;28;20052;-60
2023/10/04 02:32:53;;;;;;;15.63;9.43;;;16.80;99.90;;;;;;5071197;28;20387;-60
2023/10/04 02:35:27;;;;;;;14.65;8.98;;;16.80;99.90;;;;;;5067162;28;20032;-62
2023/10/04 02:37:59;;;;;;;24.15;11.18;;;16.70;99.90;;;;;;5066906;28;20033;-61
2023/10/04 02:40:27;;;;;;;19.40;10.57;;;16.70;99.90;;;;;;5037839;28;20024;-60
2023/10/04 02:42:58;;;;;;;23.00;11.45;;;16.70;99.90;;;;;;5015047;28;20050;-61
2023/10/04 02:45:26;;;;;;;17.17;10.80;;;16.70;99.90;;;;;;5029096;28;20041;-60
2023/10/04 02:47:53;;;;;;;17.60;10.73;;;16.60;99.90;;;;;;5027707;28;20818;-60
2023/10/04 02:50:21;;;;;;;14.32;9.90;;;16.60;99.90;;;;;;5025458;28;20040;-60
2023/10/04 02:52:47;;;;;;;14.57;9.35;;;16.60;99.90;;;;;;5023654;28;20061;-61
2023/10/04 02:55:17;;;;;;;14.20;9.10;;;16.60;99.90;;;;;;5025987;28;20145;-60
2023/10/04 02:57:49;;;;;;;15.27;9.52;;;16.60;99.90;;;;;;5026168;28;20511;-60
2023/10/04 03:00:16;;;;;;;17.42;10.00;;;16.60;99.90;;;;;;4985521;28;20048;-60
2023/10/04 03:02:44;;;;;;;13.98;9.25;;;16.70;99.90;;;;;;4999583;28;20092;-60
2023/10/04 03:05:12;;;;;;;16.05;9.93;;;16.60;99.90;;;;;;5024876;28;20033;-60
2023/10/04 03:07:37;;;;;;;13.43;9.75;;;16.40;99.90;;;;;;4992408;28;20136;-61
2023/10/04 03:10:04;;;;;;;17.63;9.85;;;16.30;99.90;;;;;;5023438;28;20121;-59
2023/10/04 03:12:30;;;;;;;14.70;8.18;;;16.20;99.90;;;;;;4984693;28;20052;-60
2023/10/04 03:14:57;;;;;;;15.32;9.40;;;16.00;99.90;;;;;;5012821;28;20102;-59
2023/10/04 03:17:23;;;;;;;18.35;9.70;;;15.80;99.90;;;;;;5067188;28;20029;-60
2023/10/04 03:19:48;;;;;;;15.35;10.95;;;15.90;99.90;;;;;;5048298;28;20033;-60
2023/10/04 03:22:19;;;;;;;14.75;10.15;;;15.90;99.90;;;;;;5065566;28;20127;-60
2023/10/04 03:24:47;;;;;;;13.07;9.13;;;16.00;99.90;;;;;;5070019;28;20063;-60
2023/10/04 03:27:13;;;;;;;14.95;9.48;;;16.10;99.90;;;;;;5067222;28;20036;-60
2023/10/04 03:29:39;;;;;;;15.77;8.77;;;16.10;99.90;;;;;;5063116;28;20511;-61
2023/10/04 03:32:05;;;;;;;13.68;8.73;;;16.10;99.90;;;;;;5033417;28;20032;-60
2023/10/04 03:34:31;;;;;;;16.52;9.10;;;15.90;99.90;;;;;;5066326;28;20162;-60
2023/10/04 03:37:08;;;;;;;21.63;9.20;;;16.00;99.90;;;;;;5063807;28;20496;-60
2023/10/04 03:39:39;;;;;;;17.10;10.00;;;16.00;99.90;;;;;;5066709;28;20472;-61
2023/10/04 03:42:05;;;;;;;15.60;9.73;;;16.10;99.90;;;;;;5063283;28;20495;-60
2023/10/04 03:44:31;;;;;;;16.92;10.25;;;16.10;99.90;;;;;;5064793;28;20036;-60
2023/10/04 03:46:57;;;;;;;18.92;10.02;;;16.10;99.90;;;;;;5063362;28;20041;-60
2023/10/04 03:49:24;;;;;;;15.82;10.25;;;15.70;99.90;;;;;;5060746;28;20173;-61
2023/10/04 03:51:53;;;;;;;16.83;10.23;;;15.70;99.90;;;;;;5068665;28;20112;-60
2023/10/04 03:54:19;;;;;;;15.10;9.65;;;;;;;;;;5061128;28;20085;-61
2023/10/04 03:56:45;;;;;;;;;;;15.10;99.90;;;;;;5033857;28;20044;-61
2023/10/04 03:59:11;;;;;;;;;;;15.10;99.90;;;;;;5070497;28;19912;-60
2023/10/04 04:01:37;;;;;;;;;;;15.30;99.90;;;;;;5064036;28;20371;-60
2023/10/04 04:04:03;;;;;;;;;;;15.20;99.90;;;;;;5062990;28;19904;-60
2023/10/04 04:06:29;;;;;;;;;;;15.30;99.90;;;;;;5061691;28;20330;-60
2023/10/04 04:08:56;;;;;;;;;;;15.40;99.90;;;;;;5068643;28;19905;-60
2023/10/04 04:11:25;;;;;;;;;;;15.30;99.90;;;;;;5063219;28;19908;-60
2023/10/04 04:13:50;;;;;;;;;;;15.30;99.90;;;;;;5065492;28;19942;-61
2023/10/04 04:16:19;;;;;;;;;;;15.40;99.90;;;;;;5031277;28;19912;-61
2023/10/04 04:18:47;;;;;;;;;;;15.30;99.90;;;;;;5061563;28;19908;-61
2023/10/04 04:21:14;;;;;;;;;;;;;;;;;;5064428;28;19909;-61
2023/10/04 04:23:41;;;;;;;;;;;;;;;;;;5065140;28;21567;-60
2023/10/04 04:26:07;;;;;;;;;;;;;;;;;;5067692;28;19909;-60
2023/10/04 04:28:35;;;;;;;;;;;15.00;99.90;;;;;;5068926;28;19948;-61
2023/10/04 04:31:05;;;;;;;;;;;15.00;99.90;;;;;;5071028;28;19970;-61
2023/10/04 04:33:31;;;;;;;;;;;14.90;99.90;;;;;;5072439;28;19919;-60
2023/10/04 04:36:04;;;;;;;;;;;14.80;99.90;;;;;;5037809;28;19905;-60
2023/10/04 04:38:30;;;;;;;;;;;14.90;99.90;;;;;;5034993;28;19969;-61
2023/10/04 04:41:04;;;;;;;;;;;14.90;99.90;;;;;;5063944;28;19905;-60
2023/10/04 04:45:58;;;;;;;;;;;14.80;99.90;;;;;;5015511;28;19917;-61
2023/10/04 04:48:24;;;;;;;;;;;15.00;99.90;;;;;;5070684;28;19923;-60
2023/10/04 04:50:54;;;;;;;;;;;15.20;99.90;;;;;;5033933;28;20010;-60
2023/10/04 04:53:22;;;;;;;;;;;15.40;99.90;;;;;;5071722;28;19993;-60
2023/10/04 04:55:51;;;;;;;;;;;15.60;99.90;;;;;;5074263;28;19909;-60
2023/10/04 04:58:20;;;;;;;;;;;15.60;99.90;;;;;;5037890;28;19963;-59
2023/10/04 05:00:50;;;;;;;;;;;15.70;99.90;;;;;;5067177;28;19908;-60
2023/10/04 05:03:16;;;;;;;;;;;15.80;99.90;;;;;;5066540;28;19914;-62
2023/10/04 05:05:42;;;;;;;;;;;15.90;99.90;;;;;;5019415;28;19904;-61
2023/10/04 05:08:08;;;;;;;;;;;16.00;99.90;;;;;;5070909;28;19966;-61
2023/10/04 05:10:38;;;;;;;;;;;16.10;99.90;;;;;;5065800;28;19947;-62
2023/10/04 05:13:13;;;;;;;;;;;16.10;99.90;;;;;;5069015;28;19912;-61
2023/10/04 05:15:42;;;;;;;;;;;16.20;99.90;;;;;;5072335;28;20411;-60
2023/10/04 05:18:11;;;;;;;;;;;16.30;99.90;;;;;;5035196;28;19908;-59
2023/10/04 05:20:37;;;;;;;;;;;16.30;99.90;;;;;;5067880;28;20329;-59
2023/10/04 05:23:04;;;;;;;;;;;16.40;99.90;;;;;;5071941;28;19995;-60
2023/10/04 05:25:30;;;;;;;;;;;16.50;99.90;;;;;;5069822;28;19923;-61
2023/10/04 05:28:03;;;;;;;;;;;16.60;99.90;;;;;;5021405;28;19912;-60
2023/10/04 05:30:29;;;;;;;;;;;16.70;99.90;;;;;;5071519;28;19916;-61
2023/10/04 05:32:55;;;;;;;;;;;16.90;99.90;;;;;;5068481;28;20287;-58
2023/10/04 05:35:21;;;;;;;;;;;17.00;99.90;;;;;;5069472;28;19913;-58
2023/10/04 05:37:47;;;;;;;17.38;11.40;;;17.20;99.90;;;;;;5033975;28;20376;-58
2023/10/04 05:40:28;;;;;;;16.55;10.57;;;17.40;99.90;;;;;;5021790;28;20052;-58
2023/10/04 05:42:54;;;;;;;15.48;10.18;;;17.60;99.90;;;;;;5051251;28;20045;-57
2023/10/04 05:45:21;;;;;;;14.70;9.15;;;17.70;99.90;;;;;;5071596;28;20113;-58
2023/10/04 05:47:50;;;;;;;15.10;9.80;;;17.90;99.90;;;;;;5072235;28;20067;-59
2023/10/04 05:50:18;;;;;;;15.55;9.80;;;18.10;99.90;;;;;;5071584;28;20059;-59
2023/10/04 05:52:44;;;;;;;16.58;10.00;;;18.10;99.90;;;;;;5009597;28;20420;-57
2023/10/04 05:55:11;;;;;;;13.20;9.43;;;18.30;99.90;;;;;;5007985;28;20504;-57
2023/10/04 05:57:36;;;;;;;13.95;8.93;;;18.40;99.90;;;;;;5012072;28;20080;-56
2023/10/04 06:00:25;;;;;;;17.23;8.70;;;18.60;99.90;;;;;;5009695;28;20038;-57
2023/10/04 06:03:01;;;;;;;14.00;9.02;;;18.70;99.90;;;;;;5011545;28;20049;-57
2023/10/04 06:05:28;;;;;;;11.27;7.53;;;18.80;99.90;;;;;;5010701;28;20083;-55
2023/10/04 06:07:57;;;;;;;14.05;7.78;;;18.90;99.90;;;;;;5007425;28;20049;-57
2023/10/04 06:10:27;;;;;;;13.25;8.27;;;19.00;99.90;;;;;;5011352;28;20521;-56
2023/10/04 06:12:54;;;;;;;12.88;7.03;;;19.20;99.90;;;;;;5009363;28;20489;-57
2023/10/04 06:15:20;;;;;;;15.25;8.20;;;;;;;;;;5010474;28;20041;-58
2023/10/04 06:17:47;;;;;;;16.45;8.35;;;;;;;;;;5008592;28;20057;-59
2023/10/04 06:20:33;;;;;;;11.73;8.18;;;;;;;;;;5010782;28;20121;-57
2023/10/04 06:23:05;;;;;;;10.60;6.88;;;;;;;;;;5025250;28;20036;-56
2023/10/04 06:25:31;;;;;;;11.48;6.47;;;;;;;;;;5066248;28;20043;-57
2023/10/04 06:27:58;;;;;;;14.48;8.10;;;;;;;;;;5062248;28;20028;-57
2023/10/04 06:30:28;;;;;;;10.05;7.68;;;20.30;99.90;;;;;;5065608;28;20045;-57
2023/10/04 06:32:56;;;;;;;13.52;7.55;;;20.30;99.90;;;;;;5067028;28;20036;-58
2023/10/04 06:35:24;;;;;;;13.18;7.20;;;20.40;99.90;;;;;;5067095;28;20159;-57
2023/10/04 06:37:58;;;;;;;11.95;8.10;;;20.40;99.90;;;;;;5062597;28;20024;-58
2023/10/04 06:40:25;;;;;;;8.57;6.45;;;20.40;99.90;;;;;;5032868;28;20044;-56
2023/10/04 06:42:55;;;;;;;12.30;7.90;;;20.30;99.90;;;;;;5063967;28;20131;-57
2023/10/04 06:45:24;;;;;;;21.05;7.95;;;20.30;99.90;;;;;;5068109;28;20033;-58
2023/10/04 06:47:51;;;;;;;14.50;8.40;;;20.50;99.90;;;;;;5067085;28;20037;-56
2023/10/04 06:50:21;;;;;;;14.68;8.27;;;;;;;;;;5063972;28;20123;-57
2023/10/04 06:52:47;;;;;;;12.52;6.80;;;;;;;;;;5070211;28;20033;-57
2023/10/04 06:55:13;;;;;;;16.70;7.70;;;;;;;;;;5068356;28;20032;-56
2023/10/04 06:57:40;;;;;;;8.70;6.20;;;;;;;;;;5063999;28;20033;-58
2023/10/04 07:00:14;;;;;;;15.25;8.18;;;;;;;;;;5064038;28;20025;-57
2023/10/04 07:02:43;;;;;;;15.65;7.88;;;;;;;;;;5062032;28;20464;-57
2023/10/04 07:05:10;;;;;;;16.15;8.05;;;;;;;;;;5067236;28;20515;-57
2023/10/04 07:07:36;;;;;;;8.98;5.82;;;;;;;;;;5068843;28;20150;-58
2023/10/04 07:10:03;;;;;;;17.33;7.70;;;;;;;;;;5064962;28;20086;-58
2023/10/04 07:12:31;;;;;;;15.15;7.78;;;;;;;;;;5065538;28;20035;-59
2023/10/04 07:14:57;;;;;;;15.43;7.07;;;;;;;;;;5069538;28;20040;-57
2023/10/04 07:17:23;;;;;;;12.90;7.40;;;;;;;;;;5064019;28;20032;-59
2023/10/04 07:19:50;;;;;;;11.48;7.18;;;;;;;;;;5067781;28;20027;-57
2023/10/04 07:22:21;;;;;;;13.60;6.95;;;;;;;;;;5049779;28;20032;-58
2023/10/04 07:24:47;;;;;;;13.07;6.70;;;;;;;;;;5069091;28;20036;-60
2023/10/04 07:27:13;;;;;;;11.38;6.25;;;;;;;;;;5029548;28;20389;-57
2023/10/04 07:29:39;;;;;;;20.02;12.93;;;25.30;99.90;;;;;;5065210;28;20052;-57
2023/10/04 07:32:05;;;;;;;9.80;6.53;;;24.60;99.90;;;;;;5066647;28;20040;-58
2023/10/04 07:34:31;;;;;;;11.13;5.95;;;;;;;;;;5033629;28;20115;-61
2023/10/04 07:36:57;;;;;;;9.60;6.18;;;;;;;;;;5002696;28;20040;-59
2023/10/04 07:39:23;;;;;;;12.88;5.95;;;26.10;99.90;;;;;;5064610;28;20032;-56
2023/10/04 07:41:49;;;;;;;10.20;6.13;;;;;;;;;;5065664;28;20021;-55
2023/10/04 07:44:16;;;;;;;9.35;4.90;;;;;;;;;;5005660;28;20036;-58
2023/10/04 07:46:42;;;;;;;10.23;5.55;;;25.70;99.90;;;;;;5063595;28;20379;-60
2023/10/04 07:49:08;;;;;;;12.02;5.60;;;25.80;99.90;;;;;;5035313;28;20500;-59
2023/10/04 07:51:35;;;;;;;10.27;5.50;;;25.60;99.90;;;;;;5070166;28;20032;-57
2023/10/04 07:54:02;;;;;;;14.50;5.20;;;;;;;;;;5064139;28;20074;-57
2023/10/04 07:56:28;;;;;;;9.40;4.30;;;26.20;99.90;;;;;;5030602;28;20033;-59
2023/10/04 07:58:53;;;;;;;14.15;5.30;;;25.80;99.90;;;;;;5068591;28;20032;-61
2023/10/04 08:01:20;;;;;;;9.38;5.40;;;;;;;;;;5062068;28;20024;-58
2023/10/04 08:03:47;;;;;;;13.02;5.15;;;;;;;;;;5069281;28;20123;-60
2023/10/04 08:06:13;;;;;;;9.30;5.40;;;26.10;99.90;;;;;;5067377;28;20024;-60
2023/10/04 08:08:41;;;;;;;12.00;5.25;;;;;;;;;;5068423;28;20403;-61
2023/10/04 08:11:11;;;;;;;7.47;4.57;;;26.80;99.90;;;;;;5060335;28;20036;-59
2023/10/04 08:13:38;;;;;;;10.05;4.70;;;;;;;;;;5065635;28;20050;-60
2023/10/04 08:16:04;;;;;;;7.70;4.03;;;27.30;99.90;;;;;;5063662;28;20487;-59
2023/10/04 08:18:30;;;;;;;7.70;4.10;;;;;;;;;;5063002;28;20108;-59
2023/10/04 08:20:56;;;;;;;5.85;3.85;;;27.60;99.90;;;;;;5065641;28;20025;-60
2023/10/04 08:23:22;;;;;;;9.93;4.32;;;27.70;99.90;;;;;;5031474;28;20048;-59
2023/10/04 08:25:51;;;;;;;8.30;3.95;;;27.10;99.90;;;;;;5036467;28;20035;-61
2023/10/04 08:28:17;;;;;;;9.18;5.90;;;;;;;;;;5035182;28;20102;-61
2023/10/04 08:30:43;;;;;;;10.07;4.07;;;28.30;99.90;;;;;;5061150;28;20041;-62
2023/10/04 08:33:09;;;;;;;8.73;3.67;;;27.70;99.90;;;;;;5062232;28;20021;-62
2023/10/04 08:35:39;;;;;;;7.72;4.03;;;27.10;99.90;;;;;;5062860;28;20032;-60
2023/10/04 08:38:05;;;;;;;6.60;3.90;;;28.50;99.90;;;;;;5052689;28;20033;-62
2023/10/04 08:40:35;;;;;;;10.32;3.70;;;28.40;99.90;;;;;;5052816;28;20029;-58
2023/10/04 08:43:01;;;;;;;4.88;3.05;;;28.00;99.90;;;;;;5001349;28;20141;-61
2023/10/04 08:45:29;;;;;;;6.97;3.53;;;28.60;99.90;;;;;;5062929;28;20512;-57
2023/10/04 08:47:56;;;;;;;6.82;2.55;;;;;;;;;;5067432;28;20135;-58
2023/10/04 08:50:41;;;;;;;9.65;4.30;;;27.10;99.90;;;;;;5061763;28;20029;-56
2023/10/04 08:53:26;;;;;;;5.00;3.10;;;27.70;99.90;;;;;;5061026;28;20052;-57
2023/10/04 08:55:59;;;;;;;11.23;4.30;;;27.50;99.90;;;;;;5061677;28;20032;-57
2023/10/04 08:58:26;;;;;;;9.40;3.90;;;27.40;99.90;;;;;;5030208;28;20041;-57
2023/10/04 09:00:52;;;;;;;7.47;3.70;;;;;;;;;;5064780;28;20438;-58
2023/10/04 09:03:21;;;;;;;7.32;3.88;;;;;;;;;;5071202;28;20025;-57
2023/10/04 09:05:51;;;;;;;10.82;3.58;;;28.90;99.90;;;;;;5071293;28;20027;-59
2023/10/04 09:08:18;;;;;;;5.43;3.47;;;29.20;99.90;;;;;;5071171;28;20451;-56
2023/10/04 09:10:44;;;;;;;7.10;2.75;;;29.40;99.90;;;;;;5071294;28;20029;-59
2023/10/04 09:13:10;;;;;;;13.38;3.90;;;28.40;99.90;;;;;;5071265;28;20078;-59
2023/10/04 09:15:37;;;;;;;5.95;3.30;;;28.70;99.90;;;;;;5038648;28;20064;-60
2023/10/04 09:18:05;;;;;;;5.05;3.17;;;28.20;99.90;;;;;;5060382;28;20040;-59
2023/10/04 09:20:32;;;;;;;9.60;3.97;;;28.00;99.90;;;;;;5052503;28;20395;-58
2023/10/04 09:23:00;;;;;;;15.52;4.97;;;28.30;99.90;;;;;;5042652;28;20029;-59
2023/10/04 09:25:40;;;;;;;12.23;4.32;;;27.60;99.90;;;;;;5066232;28;20070;-58
2023/10/04 09:28:10;;;;;;;8.10;3.78;;;27.40;99.90;;;;;;5074299;28;20043;-58
2023/10/04 09:30:37;;;;;;;8.32;4.15;;;27.60;99.90;;;;;;5074514;28;20115;-60
2023/10/04 09:33:21;;;;;;;9.02;4.22;;;27.60;99.90;;;;;;5069842;28;20033;-61
2023/10/04 09:35:48;;;;;;;6.18;4.10;;;;;;;;;;5036691;28;20361;-58
2023/10/04 09:38:29;;;;;;;10.40;3.25;;;;;;;;;;5054401;28;20037;-57
2023/10/04 09:40:57;;;;;;;7.50;3.17;;;;;;;;;;5054332;28;20028;-61
2023/10/04 09:43:35;;;;;;;8.13;3.53;;;;;;;;;;4988611;28;20038;-57
2023/10/04 09:46:06;;;;;;;6.40;2.90;;;29.10;99.90;;;;;;4963309;28;20038;-57
2023/10/04 09:48:33;;;;;;;10.43;3.60;;;;;;;;;;4953712;29;20058;-56
2023/10/04 09:51:01;;;;;;;11.30;3.28;;;;;;;;;;4953673;29;20043;-60
2023/10/04 09:53:28;;;;;;;7.85;2.80;;;29.80;99.20;;;;;;4953727;29;20168;-59
2023/10/04 09:56:01;;;;;;;10.02;3.08;;;29.90;98.90;;;;;;4953793;29;20506;-58
2023/10/04 09:58:30;;;;;;;8.35;2.63;;;29.90;98.60;;;;;;4938716;29;20089;-58
2023/10/04 10:00:57;;;;;;;9.32;3.03;;;;;;;;;;4938863;29;20538;-58
2023/10/04 10:03:28;;;;;;;4.18;2.28;;;28.40;99.90;;;;;;4955157;29;20442;-57
2023/10/04 10:05:56;;;;;;;3.03;2.13;;;28.20;99.90;;;;;;4954974;29;20376;-58
2023/10/04 10:08:31;;;;;;;5.47;2.40;;;28.30;99.90;;;;;;4954992;29;20107;-58
2023/10/04 10:10:58;;;;;;;8.45;2.75;;;;;;;;;;4955022;29;20031;-59
2023/10/04 10:13:25;;;;;;;6.97;2.85;;;;;;;;;;4957014;28;20039;-62
2023/10/04 10:15:53;;;;;;;8.15;2.47;;;29.20;98.00;;;;;;4954508;29;20037;-62
2023/10/04 10:18:21;;;;;;;9.63;2.58;;;28.90;98.20;;;;;;4921381;28;20043;-60
2023/10/04 10:20:47;;;;;;;10.10;2.75;;;29.00;97.50;;;;;;4954586;29;20050;-58
2023/10/04 10:23:13;;;;;;;6.55;2.35;;;29.40;97.80;;;;;;4859357;29;20061;-65
2023/10/04 10:25:41;;;;;;;5.50;1.80;;;29.80;97.30;;;;;;4938699;29;20137;-62
2023/10/04 10:28:21;;;;;;;8.30;1.85;;;29.10;96.80;;;;;;4957847;28;20050;-62
2023/10/04 10:30:47;;;;;;;13.73;2.25;;;29.50;96.50;;;;;;5009478;28;20042;-63
2023/10/04 10:33:12;;;;;;;7.57;2.25;;;29.00;97.00;;;;;;5004427;28;20033;-63
2023/10/04 10:35:56;;;;;;;6.18;2.38;;;28.50;96.60;;;;;;5013054;28;20069;-62
2023/10/04 10:38:39;;;;;;;7.00;3.10;;;28.20;96.70;;;;;;5012755;28;20092;-63
2023/10/04 10:41:10;;;;;;;8.23;2.28;;;;;;;;;;4999711;28;20186;-61
2023/10/04 10:43:56;;;;;;;4.07;1.65;;;;;;;;;;4993464;28;20062;-62
2023/10/04 10:46:29;;;;;;;2.97;1.92;;;;;;;;;;5007315;28;20599;-63
2023/10/04 10:48:58;;;;;;;4.15;1.52;;;28.00;96.30;;;;;;5012538;28;20045;-62
2023/10/04 10:51:43;;;;;;;8.38;1.90;;;;;;;;;;5026829;28;20107;-63
2023/10/04 10:54:09;;;;;;;11.25;2.38;;;27.60;99.90;;;;;;5054305;28;20024;-63
2023/10/04 10:56:37;;;;;;;4.90;2.47;;;27.40;99.90;;;;;;5054460;28;20077;-64
2023/10/04 10:59:06;;;;;;;10.32;2.47;;;27.50;96.30;;;;;;5035764;28;20041;-63
2023/10/04 11:01:32;;;;;;;5.88;2.10;;;;;;;;;;5054113;28;20028;-62
2023/10/04 11:04:01;;;;;;;9.60;1.85;;;;;;;;;;5035822;28;20041;-62
2023/10/04 11:06:28;;;;;;;9.93;2.03;;;;;;;;;;5054238;28;20033;-63
2023/10/04 11:08:56;;;;;;;9.95;2.10;;;;;;;;;;5054183;28;20025;-62
2023/10/04 11:11:25;;;;;;;8.02;1.85;;;27.60;98.80;;;;;;5053870;28;20036;-62
2023/10/04 11:13:51;;;;;;;5.45;2.30;;;27.40;94.80;;;;;;5054277;28;20060;-63
2023/10/04 11:16:20;;;;;;;6.13;1.58;;;;;;;;;;5053657;28;20468;-63
2023/10/04 11:18:47;;;;;;;9.18;1.58;;;;;;;;;;5053931;28;20087;-63
2023/10/04 11:21:14;;;;;;;9.60;2.25;;;;;;;;;;5053663;28;20033;-60
2023/10/04 11:23:41;;;;;;;7.53;1.40;;;26.50;99.90;;;;;;5053533;28;20433;-62
2023/10/04 11:26:09;;;;;;;7.28;1.83;;;26.60;99.90;;;;;;5035084;28;20033;-63
2023/10/04 11:28:35;;;;;;;14.38;2.53;;;;;;;;;;5053291;28;20135;-64
2023/10/04 11:31:01;;;;;;;8.50;2.13;;;26.40;99.90;;;;;;5053555;28;20461;-62
2023/10/04 11:33:27;;;;;;;8.35;2.25;;;26.80;99.90;;;;;;5053813;28;20025;-64
2023/10/04 11:35:53;;;;;;;5.68;1.90;;;26.60;99.90;;;;;;5053447;28;20116;-64
2023/10/04 11:38:19;;;;;;;9.60;2.30;;;26.70;99.90;;;;;;5053265;28;20025;-61
2023/10/04 11:40:47;;;;;;;8.77;1.85;;;26.60;99.90;;;;;;5057441;28;20396;-61
2023/10/04 11:43:14;;;;;;;4.35;1.70;;;;;;;;;;5061535;28;20055;-63
2023/10/04 11:45:40;;;;;;;4.70;1.42;;;26.30;94.40;;;;;;5056407;28;20064;-61
2023/10/04 11:48:08;;;;;;;4.72;2.20;;;26.40;94.70;;;;;;5062093;28;20040;-62
2023/10/04 11:50:50;;;;;;;4.93;1.75;;;26.70;95.20;;;;;;5062324;28;20028;-61
2023/10/04 11:53:43;;;;;;;5.03;1.67;;;;;;;;;;5062247;28;20035;-62
2023/10/04 11:56:10;;;;;;;6.43;2.22;;;27.70;95.10;;;;;;5057651;28;20090;-64
2023/10/04 11:59:02;;;;;;;6.03;1.73;;;27.90;94.50;;;;;;5061833;28;20036;-62
2023/10/04 12:01:29;;;;;;;4.32;2.00;;;27.70;95.80;;;;;;5057247;28;20039;-62
2023/10/04 12:03:56;;;;;;;3.33;1.40;;;;;;;;;;5062163;28;20033;-63
2023/10/04 12:06:25;;;;;;;6.90;1.80;;;;;;;;;;5061536;28;20132;-61
2023/10/04 12:08:55;;;;;;;8.40;1.95;;;27.20;96.70;;;;;;5061540;28;20170;-63
2023/10/04 12:11:25;;;;;;;10.07;2.17;;;27.30;96.00;;;;;;5061755;28;20451;-61
2023/10/04 12:13:52;;;;;;;6.10;2.00;;;27.10;94.10;;;;;;5062270;28;20629;-64
2023/10/04 12:16:18;;;;;;;8.68;2.00;;;27.00;93.20;;;;;;5062083;28;20499;-63
2023/10/04 12:18:45;;;;;;;9.65;2.38;;;26.90;97.40;;;;;;5062114;28;20033;-63
2023/10/04 12:21:12;;;;;;;3.45;1.05;;;27.20;98.90;;;;;;5057883;28;20028;-65
2023/10/04 12:23:39;;;;;;;12.63;2.25;;;;;;;;;;5062286;28;20158;-65
2023/10/04 12:26:05;;;;;;;3.58;1.90;;;26.60;99.90;;;;;;5063163;28;20024;-65
2023/10/04 12:28:31;;;;;;;5.20;1.95;;;26.50;97.30;;;;;;5061795;28;20124;-66
2023/10/04 12:31:02;;;;;;;3.80;1.48;;;26.80;96.80;;;;;;4995582;28;20194;-66
2023/10/04 12:33:34;;;;;;;7.13;1.75;;;26.90;96.10;;;;;;5061877;28;20063;-66
2023/10/04 12:36:00;;;;;;;3.95;1.77;;;27.20;99.90;;;;;;5061591;28;20488;-62
2023/10/04 12:38:26;;;;;;;6.20;1.90;;;26.90;99.90;;;;;;5061906;28;20029;-62
2023/10/04 12:40:52;;;;;;;6.72;1.92;;;26.20;94.90;;;;;;5059205;28;20037;-65
2023/10/04 12:43:17;;;;;;;6.40;3.15;;;26.10;97.60;;;;;;5061719;28;20086;-62
2023/10/04 12:45:44;;;;;;;9.85;4.53;;;26.10;99.90;;;;;;5062191;28;20045;-60
2023/10/04 12:48:16;;;;;;;4.40;2.65;;;26.20;99.90;;;;;;5061381;28;20037;-63
2023/10/04 12:50:42;;;;;;;;;;;;;;;;;;5065398;28;20049;-63
2023/10/04 12:53:09;;;;;;;15.00;2.45;;;26.00;98.20;;;;;;5061438;28;19994;-59
2023/10/04 12:55:35;;;;;;;8.30;3.83;;;;;;;;;;5065233;28;20117;-54
2023/10/04 12:58:03;;;;;;;8.68;2.35;;;25.70;98.90;;;;;;5062951;28;20028;-63
2023/10/04 13:00:30;;;;;;;4.68;2.28;;;25.90;99.90;;;;;;5065092;28;20058;-60
2023/10/04 13:02:57;;;;;;;6.78;3.28;;;25.70;99.00;;;;;;5064881;28;20051;-60
2023/10/04 13:05:25;;;;;;;4.93;1.80;;;25.80;99.00;;;;;;5065153;28;20029;-56
2023/10/04 13:07:51;;;;;;;8.95;2.03;;;25.80;99.10;;;;;;5064185;28;20495;-59
2023/10/04 13:10:17;;;;;;;6.47;2.17;;;25.90;99.40;;;;;;5063236;28;20532;-57
2023/10/04 13:12:43;;;;;;;3.70;1.45;;;;;;;;;;5064607;28;20147;-60
2023/10/04 13:15:10;;;;;;;3.67;1.73;;;;;;;;;;5064834;28;20376;-60
2023/10/04 13:17:36;;;;;;;9.13;1.27;;;;;;;;;;5064079;28;20036;-58
2023/10/04 13:20:17;;;;;;;5.00;1.70;;;;;;;;;;5064373;28;20476;-59
2023/10/04 13:22:46;;;;;;;4.38;1.65;;;;;;;;;;5065458;28;20104;-56
2023/10/04 13:25:12;;;;;;;8.45;2.40;;;;;;;;;;5063450;28;20474;-63